Latest Weather Observations for Dalby

IDQ60801

Issued at 2:22 pm EST Monday 18 November 2019 (issued every 10 minutes, with the page automatically refreshed every 10 minutes)

About weather observations | Map of weather stations | Latest weather observations for QLD | Other Formats
Station Details ID: 041522 Name: DALBY AIRPORT Lat: -27.16 Lon: 151.26 Height: 343.9 m
Data from the previous 72 hours. | See also: Recent months at Dalby
Date/Time
EST
Temp
°C
App
Temp
°C
Dew
Point
°C
Rel
Hum
%
Delta-T
°C
Wind Press
QNH
hPa
Press
MSL
hPa
Rain since
9am
mm
Dir  Spd
km/h
Gust
km/h
Spd
kts
Gust
kts
18/02:00pm 31.5 28.3 5.1 19 14.1 SE 11 20 6 11 1014.1 1012.4 0.0
18/01:30pm 30.7 27.1 5.2 20 13.6 SSE 13 20 7 11 1014.7 1013.1 0.0
18/01:00pm 30.4 26.9 5.6 21 13.3 ESE 13 22 7 12 1015.3 1013.6 0.0
18/12:30pm 29.6 25.4 5.6 22 12.8 E 17 30 9 16 1015.6 1013.9 0.0
18/12:00pm 29.7 25.4 7.0 24 12.4 ENE 19 33 10 18 1016.0 1014.3 0.0
18/11:30am 28.4 24.0 6.5 25 11.8 NE 19 30 10 16 1016.4 1014.7 0.0
18/11:00am 27.7 23.7 8.1 29 10.8 ENE 19 32 10 17 1016.9 1015.2 0.0
18/10:30am 28.2 23.6 9.5 31 10.6 E 24 37 13 20 1017.3 1015.7 0.0
18/10:00am 26.8 21.0 9.6 34 9.6 E 30 41 16 22 1017.5 1015.9 0.0
18/09:38am 25.9 19.9 10.1 37 8.9 E 32 56 17 30 1017.6 1016.0 0.0
18/09:30am 25.0 19.2 9.3 37 8.7 E 30 46 16 25 1017.7 1016.1 0.0
18/09:00am 25.0 18.2 9.3 37 8.7 ENE 35 50 19 27 1017.9 1016.2 0.0
18/08:30am 24.5 17.2 8.9 37 8.6 E 37 46 20 25 1017.9 1016.2 0.0
18/08:00am 22.8 15.2 8.9 41 7.5 E 39 50 21 27 1018.2 1016.5 0.0
18/07:30am 22.4 15.2 9.2 43 7.2 E 37 46 20 25 1018.3 1016.6 0.0
18/07:00am 21.4 14.5 9.0 45 6.7 E 35 46 19 25 1018.1 1016.4 0.0
18/06:30am 20.4 14.2 9.9 51 5.7 E 33 43 18 23 1017.9 1016.2 0.0
18/06:00am 19.6 15.8 11.1 58 4.7 E 22 30 12 16 1017.5 1015.9 0.0
18/05:30am 18.8 15.6 11.1 61 4.3 E 19 24 10 13 1017.2 1015.5 0.0
18/05:00am 18.7 15.2 11.0 61 4.2 E 20 28 11 15 1017.0 1015.3 0.0
18/04:30am 18.9 16.0 11.0 60 4.4 E 17 20 9 11 1016.6 1014.9 0.0
18/04:00am 19.6 16.4 11.4 59 4.6 ENE 19 24 10 13 1016.1 1014.4 0.0
18/03:30am 20.1 17.4 12.8 63 4.2 ENE 19 22 10 12 1015.8 1014.1 0.0
18/03:00am 20.1 17.9 12.1 60 4.5 ESE 15 20 8 11 1015.7 1014.0 0.0
18/02:30am 20.3 17.3 12.0 59 4.7 ESE 19 24 10 13 1015.5 1013.8 0.0
18/02:00am 20.8 17.0 12.5 59 4.8 ESE 24 30 13 16 1015.4 1013.7 0.0
18/01:30am 19.8 16.6 10.0 53 5.3 SSE 17 22 9 12 1015.5 1013.8 0.0
18/01:00am 19.9 16.7 8.6 48 6.0 SSE 15 19 8 10 1015.4 1013.7 0.0
18/12:30am 20.2 16.3 6.9 42 6.9 SSE 17 22 9 12 1015.5 1013.8 0.0
18/12:00am 20.6 15.8 -0.1 25 9.3 SSE 15 22 8 12 1015.7 1014.0 0.0
 
Date/Time
EST
Temp
°C
App
Temp
°C
Dew
Point
°C
Rel
Hum
%
Delta-T
°C
Wind Press
QNH
hPa
Press
MSL
hPa
Rain since
9am
mm
Dir  Spd
km/h
Gust
km/h
Spd
kts
Gust
kts
17/11:30pm 21.9 15.7 -5.0 16 11.2 SSE 19 24 10 13 1015.7 1014.0 0.0
17/11:00pm 23.3 17.2 -7.7 12 12.4 S 17 22 9 12 1015.3 1013.6 0.0
17/10:30pm 23.7 17.2 -7.4 12 12.5 S 19 22 10 12 1015.3 1013.6 0.0
17/10:00pm 24.8 18.2 -6.5 12 13.0 SSW 20 30 11 16 1015.0 1013.3 0.0
17/09:30pm 25.6 18.3 -5.9 12 13.3 SSW 24 32 13 17 1014.7 1013.1 0.0
17/09:00pm 26.6 19.0 -5.1 12 13.7 SSW 26 35 14 19 1014.3 1012.6 0.0
17/08:30pm 27.0 20.2 -4.8 12 13.9 S 22 32 12 17 1014.2 1012.5 0.0
17/08:00pm 28.2 20.3 -5.0 11 14.6 SSW 28 35 15 19 1014.0 1012.3 0.0
17/07:30pm 28.9 21.0 -4.5 11 14.9 SSW 28 37 15 20 1013.4 1011.7 0.0
17/07:00pm 29.7 21.5 -3.9 11 15.2 SW 30 41 16 22 1012.4 1010.7 0.0
17/06:30pm 30.6 22.4 -4.4 10 15.8 SW 30 41 16 22 1011.6 1009.9 0.0
17/06:00pm 31.9 23.0 -4.9 9 16.7 SW 33 44 18 24 1011.1 1009.4 0.0
17/05:30pm 33.2 23.5 -5.5 8 17.5 SW 37 52 20 28 1010.5 1008.8 0.0
17/05:00pm 34.4 23.5 -6.3 7 18.4 SW 43 63 23 34 1010.1 1008.4 0.0
17/04:55pm 34.1 23.2 -6.5 7 18.2 WSW 43 63 23 34 1009.8 1008.1 0.0
17/04:30pm 35.3 24.8 -5.7 7 18.8 SW 41 54 22 29 1009.5 1007.7 0.0
17/04:20pm 35.2 25.1 -5.7 7 18.7 SW 39 57 21 31 1009.3 1007.5 0.0
17/04:00pm 35.7 24.7 -5.4 7 19.0 SW 44 59 24 32 1009.0 1007.2 0.0
17/03:50pm 36.0 26.3 -5.2 7 19.1 SW 37 61 20 33 1008.9 1007.1 0.0
17/03:30pm 36.5 27.6 -4.8 7 19.4 WSW 33 48 18 26 1008.7 1006.9 0.0
17/03:00pm 36.0 26.7 -5.2 7 19.2 WSW 35 57 19 31 1008.8 1007.0 0.0
17/02:31pm 36.7 27.9 -4.7 7 19.5 W 33 50 18 27 1008.9 1007.1 0.0
17/02:30pm 36.5 27.6 -4.8 7 19.4 W 33 50 18 27 1008.9 1007.1 0.0
17/02:17pm 37.2 28.0 -4.3 7 19.7 W 35 57 19 31 1008.9 1007.1 0.0
17/02:14pm 36.8 28.0 -4.6 7 19.5 W 33 46 18 25 1009.0 1007.2 0.0
17/02:08pm 36.7 28.2 -2.9 8 19.2 WSW 32 46 17 25 1009.0 1007.2 0.0
17/02:04pm 36.2 27.3 -5.0 7 19.2 WSW 33 52 18 28 1009.0 1007.2 0.0
17/02:00pm 37.0 27.0 -4.4 7 19.6 WSW 39 52 21 28 1009.2 1007.4 0.0
17/01:54pm 36.5 27.3 -4.8 7 19.4 W 35 56 19 30 1009.3 1007.5 0.0
17/01:30pm 36.2 27.5 -3.3 8 18.9 W 33 57 18 31 1009.5 1007.7 0.0
17/01:21pm 37.5 29.9 -2.3 8 19.5 WNW 28 52 15 28 1009.5 1007.7 0.0
17/01:10pm 35.4 24.9 -2.3 9 18.3 W 43 67 23 36 1009.8 1008.1 0.0
17/01:00pm 36.3 27.1 -1.6 9 18.7 WSW 37 56 20 30 1009.9 1008.2 0.0
17/12:31pm 34.8 27.7 1.2 12 17.2 W 28 54 15 29 1010.6 1008.9 0.0
17/12:30pm 34.6 27.7 -0.1 11 17.3 W 26 43 14 23 1010.5 1008.8 0.0
17/12:05pm 35.2 27.9 2.6 13 17.1 W 30 48 16 26 1011.1 1009.4 0.0
17/12:00pm 35.7 29.3 3.0 13 17.3 WNW 26 39 14 21 1011.2 1009.5 0.0
17/11:50am 34.5 27.7 3.1 14 16.5 W 28 46 15 25 1011.4 1009.7 0.0
17/11:30am 34.4 29.6 5.8 17 15.7 WSW 20 33 11 18 1011.9 1010.1 0.0
17/11:00am 33.8 29.3 8.4 21 14.5 W 22 35 12 19 1012.4 1010.7 0.0
17/10:30am 32.5 27.2 9.9 25 13.1 WNW 28 37 15 20 1012.8 1011.1 0.0
17/10:00am 31.8 27.4 10.5 27 12.4 WNW 24 37 13 20 1013.1 1011.4 0.0
17/09:30am 30.5 26.8 11.5 31 11.2 NW 22 32 12 17 1013.5 1011.8 0.0
17/09:00am 29.6 26.9 13.4 37 9.8 NW 20 32 11 17 1013.8 1012.1 0.0
17/08:30am 28.4 25.4 12.7 38 9.3 NW 20 28 11 15 1014.1 1012.4 0.0
17/08:00am 27.7 24.9 14.3 43 8.1 NW 22 33 12 18 1014.3 1012.6 0.0
17/07:30am 26.6 24.1 14.0 46 7.6 NNW 20 32 11 17 1014.6 1012.9 0.0
17/07:00am 24.9 23.5 14.4 52 6.3 N 15 28 8 15 1014.7 1013.1 0.0
17/06:30am 24.3 24.9 11.9 45 7.1 CALM 0 0 0 0 1014.6 1012.9 0.0
17/06:00am 21.8 21.7 12.1 54 5.5 ESE 4 7 2 4 1014.3 1012.6 0.0
17/05:30am 19.4 17.4 10.1 55 5.1 E 11 13 6 7 1014.0 1012.3 0.0
17/05:00am 17.0 14.3 5.6 47 5.6 E 9 11 5 6 1013.7 1012.0 0.0
17/04:30am 18.0 16.1 7.4 50 5.4 ESE 7 9 4 5 1013.8 1012.1 0.0
17/04:00am 18.8 17.3 9.3 54 5.1 SSE 7 9 4 5 1013.5 1011.8 0.0
17/03:30am 18.0 17.1 6.2 46 5.9 CALM 0 0 0 0 1013.2 1011.5 0.0
17/03:00am 19.4 19.0 8.4 49 5.8 CALM 0 0 0 0 1013.2 1011.5 0.0
17/02:30am 20.8 19.2 10.3 51 5.8 SSW 9 9 5 5 1013.1 1011.4 0.0
17/02:00am 21.0 20.2 8.0 43 6.9 W 2 9 1 5 1013.0 1011.3 0.0
17/01:30am 21.7 19.9 9.6 46 6.6 S 9 13 5 7 1013.0 1011.3 0.0
17/01:00am 20.9 19.0 8.9 46 6.5 W 9 11 5 6 1013.0 1011.3 0.0
17/12:30am 22.4 21.0 9.6 44 7.0 NNW 7 9 4 5 1013.0 1011.3 0.0
17/12:00am 22.1 20.0 6.7 37 8.0 W 7 11 4 6 1013.2 1011.5 0.0
 
Date/Time
EST
Temp
°C
App
Temp
°C
Dew
Point
°C
Rel
Hum
%
Delta-T
°C
Wind Press
QNH
hPa
Press
MSL
hPa
Rain since
9am
mm
Dir  Spd
km/h
Gust
km/h
Spd
kts
Gust
kts
16/11:30pm 24.0 20.6 7.6 35 8.8 N 15 20 8 11 1013.6 1011.9 0.0
16/11:00pm 24.5 21.6 6.3 31 9.5 N 11 15 6 8 1013.8 1012.1 0.0
16/10:30pm 24.6 20.3 -4.6 14 12.5 S 9 20 5 11 1013.9 1012.2 0.0
16/10:00pm 24.7 21.2 -6.6 12 12.9 NE 4 7 2 4 1013.9 1012.2 0.0
16/09:30pm 28.7 23.7 -4.6 11 14.8 N 13 17 7 9 1013.7 1012.0 0.0
16/09:00pm 28.9 23.5 -4.5 11 14.9 S 15 20 8 11 1012.7 1011.0 0.0
16/08:30pm 29.3 23.5 -4.2 11 15.0 S 17 22 9 12 1012.4 1010.7 0.0
16/08:00pm 28.4 23.3 -4.9 11 14.7 SSW 13 17 7 9 1012.2 1010.5 0.0
16/07:30pm 29.2 23.8 -4.3 11 15.0 SSW 15 17 8 9 1011.8 1010.0 0.0
16/07:00pm 30.3 24.5 -4.7 10 15.7 SW 17 19 9 10 1011.4 1009.7 0.0
16/06:30pm 31.6 26.1 -5.1 9 16.5 SW 15 19 8 10 1011.0 1009.3 0.0
16/06:00pm 34.1 28.3 -4.8 8 18.0 WSW 17 24 9 13 1010.5 1008.8 0.0
16/05:30pm 35.3 29.0 -3.9 8 18.5 WSW 20 30 11 16 1010.2 1008.5 0.0
16/05:00pm 35.9 28.9 -3.5 8 18.8 WSW 24 33 13 18 1009.8 1008.1 0.0
16/04:30pm 36.2 30.2 -1.7 9 18.6 WSW 20 30 11 16 1009.9 1008.2 0.0
16/04:00pm 35.9 29.1 -1.9 9 18.5 W 24 37 13 20 1009.9 1008.2 0.0
16/03:30pm 36.1 30.7 1.0 11 18.0 W 19 26 10 14 1009.9 1008.2 0.0
16/03:00pm 35.7 31.6 4.1 14 17.0 WNW 15 22 8 12 1010.2 1008.5 0.0
16/02:30pm 35.6 31.1 4.0 14 16.9 WNW 17 24 9 13 1010.6 1008.9 0.0
16/02:00pm 34.7 29.1 5.2 16 16.1 W 24 35 13 19 1011.1 1009.4 0.0
16/01:30pm 34.9 31.6 6.2 17 15.9 WNW 13 22 7 12 1011.6 1009.9 0.0
16/01:00pm 33.9 29.0 7.0 19 15.0 NW 22 35 12 19 1012.2 1010.5 0.0
16/12:30pm 33.5 29.3 7.5 20 14.6 W 19 33 10 18 1012.7 1011.0 0.0
16/12:00pm 34.6 30.4 8.4 20 15.0 WNW 20 35 11 19 1013.1 1011.4 0.0
16/11:30am 32.9 28.9 8.4 22 13.9 NW 19 28 10 15 1013.6 1011.9 0.0
16/11:00am 32.1 28.5 8.4 23 13.4 WNW 17 33 9 18 1014.0 1012.3 0.0
16/10:30am 31.8 28.4 9.3 25 12.9 NW 17 26 9 14 1014.4 1012.7 0.0
16/10:00am 30.5 26.6 9.4 27 12.0 NW 20 33 11 18 1014.9 1013.2 0.0
16/09:30am 30.4 26.8 10.4 29 11.6 WNW 20 32 11 17 1015.1 1013.4 0.0
16/09:00am 29.8 25.0 10.4 30 11.2 WNW 26 35 14 19 1015.2 1013.5 0.0
16/08:30am 28.8 23.7 10.5 32 10.5 WNW 28 37 15 20 1015.4 1013.7 0.0
16/08:00am 27.6 23.0 11.2 36 9.5 NW 26 33 14 18 1015.5 1013.8 0.0
16/07:30am 26.5 21.7 11.8 40 8.5 NW 28 35 15 19 1015.5 1013.8 0.0
16/07:00am 26.1 21.9 12.5 42 8.0 NW 26 32 14 17 1015.2 1013.5 0.0
16/06:30am 24.2 20.7 12.2 47 7.0 NNW 22 28 12 15 1014.9 1013.2 0.0
16/06:00am 23.2 20.2 12.5 51 6.2 N 20 24 11 13 1014.5 1012.8 0.0
16/05:30am 21.3 19.2 12.4 57 5.1 N 15 20 8 11 1014.2 1012.5 0.0
16/05:00am 19.5 17.4 11.0 58 4.7 N 13 15 7 8 1014.0 1012.3 0.0
16/04:30am 20.4 18.0 11.3 56 5.1 N 15 19 8 10 1013.7 1012.0 0.0
16/04:00am 20.7 18.2 11.1 54 5.4 N 15 19 8 10 1013.6 1011.9 0.0
16/03:30am 20.9 18.0 11.0 53 5.5 NNW 17 20 9 11 1013.6 1011.9 0.0
16/03:00am 20.8 17.9 10.9 53 5.5 NNW 17 20 9 11 1013.4 1011.7 0.0
16/02:30am 21.1 18.3 11.2 53 5.6 N 17 20 9 11 1013.5 1011.8 0.0
16/02:00am 20.8 18.1 10.3 51 5.8 N 15 17 8 9 1013.6 1011.9 0.0
16/01:30am 21.6 18.0 10.7 50 6.1 NNW 20 22 11 12 1013.6 1011.9 0.0
16/01:00am 21.5 18.2 9.7 47 6.5 N 17 19 9 10 1013.6 1011.9 0.0
16/12:30am 21.5 18.1 9.1 45 6.7 NNW 17 19 9 10 1013.9 1012.2 0.0
16/12:00am 21.6 18.4 8.5 43 7.0 N 15 17 8 9 1013.9 1012.2 0.0
 
Date/Time
EST
Temp
°C
App
Temp
°C
Dew
Point
°C
Rel
Hum
%
Delta-T
°C
Wind Press
QNH
hPa
Press
MSL
hPa
Rain since
9am
mm
Dir  Spd
km/h
Gust
km/h
Spd
kts
Gust
kts
15/11:30pm 22.3 19.1 8.4 41 7.5 N 15 17 8 9 1014.1 1012.4 0.0
15/11:00pm 22.1 19.0 7.1 38 7.9 N 13 15 7 8 1014.2 1012.5 0.0
15/10:30pm 23.4 19.9 7.1 35 8.6 N 15 17 8 9 1014.2 1012.5 0.0
15/10:00pm 25.2 20.1 7.8 33 9.4 NNE 24 28 13 15 1014.1 1012.4 0.0
15/09:30pm 22.5 17.4 -9.4 11 12.2 ESE 11 15 6 8 1013.4 1011.7 0.0
15/09:00pm 25.3 20.4 -7.2 11 13.3 SSE 11 13 6 7 1012.9 1011.2 0.0
15/08:30pm 26.9 22.0 -7.2 10 14.2 S 11 15 6 8 1012.6 1010.9 0.0
15/08:00pm 26.5 21.2 -7.6 10 14.1 SSW 13 15 7 8 1012.1 1010.3 0.0
15/07:30pm 26.5 21.1 -8.9 9 14.3 SW 13 15 7 8 1012.0 1010.2 0.0
15/07:00pm 27.7 22.3 -8.0 9 14.8 SW 13 15 7 8 1012.0 1010.2 0.0
15/06:30pm 30.0 24.3 -7.8 8 16.0 SW 15 20 8 11 1011.5 1009.8 0.0
15/06:00pm 32.5 26.0 -7.7 7 17.5 WSW 19 26 10 14 1011.0 1009.3 0.0
15/05:30pm 33.5 26.0 -9.0 6 18.2 WSW 24 30 13 16 1010.7 1009.0 0.0
15/05:00pm 33.9 26.0 -8.7 6 18.4 WSW 26 46 14 25 1010.4 1008.7 0.0
15/04:58pm 34.3 26.1 -8.4 6 18.6 WSW 28 46 15 25 1010.4 1008.7 0.0
15/04:55pm 34.3 26.4 -8.4 6 18.6 WSW 26 33 14 18 1010.3 1008.6 0.0
15/04:30pm 34.6 29.2 -8.2 6 18.7 SW 13 28 7 15 1010.2 1008.5 0.0
15/04:00pm 34.8 28.7 -8.0 6 18.9 WNW 17 32 9 17 1010.3 1008.6 0.0
15/03:30pm 34.6 26.0 -8.2 6 18.7 W 30 44 16 24 1010.4 1008.7 0.0
15/03:00pm 34.6 28.1 -8.2 6 18.8 W 19 33 10 18 1010.6 1008.9 0.0
15/02:30pm 35.4 29.5 -5.6 7 18.8 W 17 32 9 17 1010.7 1009.0 0.0

Other formats

Comma delimited format used in spreadsheet applications
http://www.bom.gov.au/fwo/IDQ60801/IDQ60801.94542.axf

JavaScript Object Notation format (JSON) in row-major order
http://www.bom.gov.au/fwo/IDQ60801/IDQ60801.94542.json

Data quality

Most of these data are generated automatically and are frequently updated. Quality checks on data are not normally performed. It is possible for incorrect values to appear. Refer to information at About Latest Weather Observations and please check the disclaimer before using these data.